Time;durP1;ratioP1;P1;durP2;ratioP2;P2;SDS_P1;SDS_P2;PMS_P1;PMS_P2;Temp;Humidity;BMP_temperature;BMP_pressure;BME280_temperature;BME280_humidity;BME280_pressure;Samples;Min_cycle;Max_cycle;Signal;HPM_P1;HPM_P2
2021/01/17 00:01:50;;;;;;;27.87;18.60;;;;;;;;;;5035359;28;20264;-82
2021/01/17 00:04:21;;;;;;;28.37;18.40;;;;;;;;;;5034709;28;20551;-82
2021/01/17 00:06:52;;;;;;;28.50;18.60;;;;;;;;;;5035027;28;20186;-82
2021/01/17 00:09:22;;;;;;;30.60;19.37;;;;;;;;;;5034719;28;20231;-82
2021/01/17 00:11:59;;;;;;;31.37;19.47;;;;;;;;;;5034410;28;20632;-82
2021/01/17 00:14:32;;;;;;;27.43;19.13;;;;;;;;;;5034711;28;20244;-82
2021/01/17 00:17:02;;;;;;;27.90;18.60;;;;;;;;;;5034561;28;20181;-82
2021/01/17 00:19:34;;;;;;;31.40;19.47;;;;;;;;;;5034602;28;20247;-82
2021/01/17 00:22:05;;;;;;;28.40;18.63;;;;;;;;;;5034371;28;20176;-82
2021/01/17 00:24:35;;;;;;;26.17;18.80;;;;;;;;;;5034680;28;20252;-82
2021/01/17 00:27:06;;;;;;;29.90;19.30;;;;;;;;;;5034329;28;20195;-82
2021/01/17 00:29:38;;;;;;;33.83;21.20;;;;;;;;;;5016452;28;20580;-82
2021/01/17 00:32:15;;;;;;;33.07;21.37;;;;;;;;;;5016495;28;20571;-82
2021/01/17 00:34:47;;;;;;;31.23;20.10;;;;;;;;;;5034455;28;20176;-81
2021/01/17 00:37:15;;;;;;;30.33;19.10;;;;;;;;;;5034154;28;20240;-82
2021/01/17 00:39:48;;;;;;;28.57;18.93;;;;;;;;;;5016311;28;20579;-82
2021/01/17 00:42:19;;;;;;;31.00;19.97;;;;;;;;;;5034382;28;20177;-82
2021/01/17 00:44:52;;;;;;;30.93;19.90;;;;;;;;;;5016109;28;20182;-82
2021/01/17 00:47:25;;;;;;;32.77;21.40;;;;;;;;;;5016092;28;20187;-81
2021/01/17 00:49:55;;;;;;;32.13;21.13;;;;;;;;;;5033978;28;20549;-82
2021/01/17 00:52:29;;;;;;;34.90;20.90;;;;;;;;;;5033753;28;20554;-82
2021/01/17 00:55:00;;;;;;;29.47;20.27;;;;;;;;;;5034364;28;20172;-82
2021/01/17 00:57:36;;;;;;;27.63;19.17;;;;;;;;;;5033784;28;20184;-82
2021/01/17 01:00:10;;;;;;;32.37;21.33;;;;;;;;;;5033704;28;20193;-82
2021/01/17 01:02:41;;;;;;;30.93;21.23;;;;;;;;;;5016120;28;20183;-82
2021/01/17 01:05:15;;;;;;;32.37;20.37;;;;;;;;;;5033645;28;20178;-82
2021/01/17 01:07:46;;;;;;;31.97;20.03;;;;;;;;;;5033841;28;20168;-82
2021/01/17 01:10:16;;;;;;;34.57;21.87;;;;;;;;;;5033428;28;20232;-82
2021/01/17 01:12:48;;;;;;;33.80;20.33;;;;;;;;;;5015645;28;20196;-82
2021/01/17 01:15:17;;;;;;;30.13;19.47;;;;;;;;;;5033748;28;20178;-82
2021/01/17 01:17:49;;;;;;;28.93;20.10;;;;;;;;;;5033263;28;20703;-82
2021/01/17 01:20:21;;;;;;;31.80;20.57;;;;;;;;;;5033675;28;20211;-82
2021/01/17 01:22:50;;;;;;;33.47;20.17;;;;;;;;;;5033806;28;20166;-82
2021/01/17 01:25:25;;;;;;;33.10;21.57;;;;;;;;;;5015821;28;20603;-82
2021/01/17 01:27:52;;;;;;;31.63;20.27;;;;;;;;;;5033873;28;20179;-82
2021/01/17 01:30:18;;;;;;;29.93;21.67;;;;;;;;;;5015334;28;20204;-82
2021/01/17 01:32:49;;;;;;;31.33;19.73;;;;;;;;;;5033099;28;20235;-82
2021/01/17 01:35:15;;;;;;;33.23;21.13;;;;;;;;;;5033363;28;20172;-82
2021/01/17 01:37:41;;;;;;;31.70;21.07;;;;;;;;;;5033038;28;20327;-81
2021/01/17 01:40:07;;;;;;;30.43;20.63;;;;;;;;;;5015680;28;20266;-81
2021/01/17 01:42:41;;;;;;;30.63;21.13;;;;;;;;;;5034096;28;20183;-81
2021/01/17 01:45:09;;;;;;;30.73;20.10;;;;;;;;;;5033074;28;20647;-82
2021/01/17 01:47:39;;;;;;;30.17;21.00;;;;;;;;;;5033529;28;20184;-80
2021/01/17 01:50:10;;;;;;;28.70;20.70;;;;;;;;;;5033325;28;20595;-81
2021/01/17 01:52:37;;;;;;;35.33;22.40;;;;;;;;;;5033072;28;20291;-81
2021/01/17 01:55:09;;;;;;;36.43;22.20;;;;;;;;;;5015454;28;20262;-81
2021/01/17 01:57:41;;;;;;;34.57;21.57;;;;;;;;;;5015788;28;20176;-82
2021/01/17 02:00:09;;;;;;;37.57;23.00;;;;;;;;;;5033139;28;20196;-82
2021/01/17 02:02:46;;;;;;;30.07;21.20;;;;;;;;;;5015502;28;20213;-81
2021/01/17 02:05:16;;;;;;;34.03;22.17;;;;;;;;;;5034459;28;20234;-81
2021/01/17 02:07:54;;;;;;;31.20;21.97;;;;;;;;;;5036925;28;20193;-81
2021/01/17 02:10:24;;;;;;;34.20;22.57;;;;;;;;;;5018840;28;20616;-82
2021/01/17 02:13:02;;;;;;;35.37;21.70;;;;;;;;;;5036720;28;20205;-81
2021/01/17 02:15:41;;;;;;;34.50;21.93;;;;;;;;;;5037154;28;20175;-81
2021/01/17 02:18:09;;;;;;;35.13;22.53;;;;;;;;;;5036514;28;20191;-82
2021/01/17 02:20:41;;;;;;;32.50;21.80;;;;;;;;;;5036867;28;20187;-82
2021/01/17 02:23:14;;;;;;;32.47;21.17;;;;;;;;;;5036485;28;20267;-81
2021/01/17 02:25:46;;;;;;;29.73;20.63;;;;;;;;;;5018907;28;20564;-81
2021/01/17 02:28:20;;;;;;;31.97;21.33;;;;;;;;;;5036549;28;20582;-81
2021/01/17 02:30:56;;;;;;;33.70;22.33;;;;;;;;;;5036938;28;20195;-82
2021/01/17 02:33:26;;;;;;;33.80;22.77;;;;;;;;;;5036706;28;20213;-82
2021/01/17 02:35:57;;;;;;;30.43;21.40;;;;;;;;;;5036524;28;20639;-81
2021/01/17 02:38:35;;;;;;;34.67;20.87;;;;;;;;;;5036182;28;20214;-81
2021/01/17 02:41:20;;;;;;;36.53;22.10;;;;;;;;;;5036824;28;20158;-81
2021/01/17 02:43:50;;;;;;;35.60;22.30;;;;;;;;;;5036308;28;20281;-82
2021/01/17 02:46:16;;;;;;;33.50;21.77;;;;;;;;;;5036363;28;20289;-81
2021/01/17 02:48:51;;;;;;;33.10;23.00;;;;;;;;;;5018295;28;20574;-81
2021/01/17 02:51:30;;;;;;;32.67;22.97;;;;;;;;;;5036317;28;20283;-82
2021/01/17 02:54:07;;;;;;;32.97;22.60;;;;;;;;;;5036284;28;20618;-82
2021/01/17 02:56:41;;;;;;;38.67;22.27;;;;;;;;;;5036718;28;20177;-81
2021/01/17 02:59:16;;;;;;;39.50;24.23;;;;;;;;;;5036010;28;20197;-82
2021/01/17 03:01:50;;;;;;;33.77;22.87;;;;;;;;;;5035924;28;20187;-81
2021/01/17 03:04:22;;;;;;;31.50;21.43;;;;;;;;;;5036411;28;20266;-81
2021/01/17 03:06:54;;;;;;;33.30;21.43;;;;;;;;;;5018215;28;20183;-81
2021/01/17 03:09:22;;;;;;;32.63;22.50;;;;;;;;;;5035697;28;20203;-81
2021/01/17 03:11:52;;;;;;;37.40;22.97;;;;;;;;;;5035938;28;20570;-82
2021/01/17 03:14:22;;;;;;;32.80;21.50;;;;;;;;;;5035816;28;20268;-82
2021/01/17 03:16:51;;;;;;;35.63;22.43;;;;;;;;;;5016824;28;20187;-81
2021/01/17 03:19:22;;;;;;;33.43;21.93;;;;;;;;;;5017848;28;20559;-81
2021/01/17 03:21:52;;;;;;;32.93;21.37;;;;;;;;;;5035613;28;20180;-82
2021/01/17 03:24:24;;;;;;;31.50;22.13;;;;;;;;;;5017834;28;20207;-81
2021/01/17 03:27:00;;;;;;;32.50;22.17;;;;;;;;;;5018077;28;20580;-81
2021/01/17 03:29:31;;;;;;;31.17;20.37;;;;;;;;;;5035393;28;20549;-82
2021/01/17 03:32:03;;;;;;;32.20;21.23;;;;;;;;;;5035276;28;20203;-81
2021/01/17 03:34:35;;;;;;;33.60;21.53;;;;;;;;;;5035518;28;20215;-81
2021/01/17 03:37:07;;;;;;;31.00;19.37;;;;;;;;;;5017396;28;20270;-81
2021/01/17 03:39:38;;;;;;;30.03;20.47;;;;;;;;;;5035200;28;20637;-82
2021/01/17 03:42:10;;;;;;;34.27;20.70;;;;;;;;;;5035502;28;20221;-81
2021/01/17 03:44:48;;;;;;;36.17;21.40;;;;;;;;;;5035051;28;20598;-81
2021/01/17 03:47:21;;;;;;;28.97;21.13;;;;;;;;;;5035499;28;20194;-81
2021/01/17 03:49:52;;;;;;;29.03;19.83;;;;;;;;;;5035329;28;20249;-82
2021/01/17 03:52:21;;;;;;;32.37;20.80;;;;;;;;;;5034919;28;20262;-82
2021/01/17 03:54:52;;;;;;;34.73;20.87;;;;;;;;;;5017156;28;20190;-81
2021/01/17 03:57:22;;;;;;;28.57;18.37;;;;;;;;;;5017176;28;20550;-82
2021/01/17 03:59:52;;;;;;;29.20;20.10;;;;;;;;;;5034769;28;20597;-81
2021/01/17 04:02:22;;;;;;;34.43;18.80;;;;;;;;;;5034836;28;20656;-81
2021/01/17 04:04:52;;;;;;;32.40;21.20;;;;;;;;;;5034726;28;20267;-82
2021/01/17 04:07:20;;;;;;;28.33;18.67;;;;;;;;;;5034752;28;20262;-81
2021/01/17 04:09:52;;;;;;;30.80;19.90;;;;;;;;;;5034670;28;20277;-81
2021/01/17 04:12:25;;;;;;;30.17;19.80;;;;;;;;;;5016532;28;20732;-81
2021/01/17 04:14:56;;;;;;;33.07;19.43;;;;;;;;;;5034967;28;20181;-81
2021/01/17 04:17:26;;;;;;;29.10;18.70;;;;;;;;;;5034489;28;20183;-81
2021/01/17 04:19:56;;;;;;;29.07;19.77;;;;;;;;;;5034412;28;20214;-82
2021/01/17 04:22:26;;;;;;;29.37;19.77;;;;;;;;;;5034606;28;20209;-81
2021/01/17 04:24:56;;;;;;;31.57;19.10;;;;;;;;;;5016535;28;20183;-81
2021/01/17 04:27:26;;;;;;;29.00;19.30;;;;;;;;;;5034228;28;20270;-81
2021/01/17 04:29:58;;;;;;;28.63;19.70;;;;;;;;;;5016249;28;20230;-81
2021/01/17 04:32:30;;;;;;;29.43;19.27;;;;;;;;;;5016587;28;20202;-81
2021/01/17 04:35:02;;;;;;;31.10;19.57;;;;;;;;;;5034180;28;20263;-82
2021/01/17 04:37:31;;;;;;;28.13;18.83;;;;;;;;;;5034172;28;20666;-81
2021/01/17 04:40:02;;;;;;;31.63;19.90;;;;;;;;;;5033870;28;20322;-81
2021/01/17 04:42:41;;;;;;;28.13;19.07;;;;;;;;;;5034393;28;20180;-82
2021/01/17 04:45:11;;;;;;;27.93;18.63;;;;;;;;;;5034245;28;20230;-82
2021/01/17 04:47:44;;;;;;;29.37;18.83;;;;;;;;;;5016342;28;20228;-82
2021/01/17 04:50:18;;;;;;;33.67;20.43;;;;;;;;;;5034075;28;20195;-82
2021/01/17 04:52:52;;;;;;;26.60;18.43;;;;;;;;;;5015988;28;20216;-81
2021/01/17 04:55:31;;;;;;;29.90;19.73;;;;;;;;;;5034369;28;20196;-82
2021/01/17 04:58:11;;;;;;;30.93;21.00;;;;;;;;;;5033838;28;20176;-82
2021/01/17 05:00:42;;;;;;;32.27;20.90;;;;;;;;;;5033761;28;20172;-81
2021/01/17 05:03:25;;;;;;;34.17;21.13;;;;;;;;;;5016200;28;20184;-81
2021/01/17 05:06:00;;;;;;;27.80;20.10;;;;;;;;;;5015853;28;20568;-81
2021/01/17 05:08:34;;;;;;;34.30;21.20;;;;;;;;;;5033409;28;20199;-82
2021/01/17 05:11:10;;;;;;;28.30;18.60;;;;;;;;;;5033571;28;20175;-81
2021/01/17 05:13:50;;;;;;;29.03;19.80;;;;;;;;;;5033565;28;20176;-81
2021/01/17 05:16:22;;;;;;;37.93;19.90;;;;;;;;;;5034046;28;20180;-81
2021/01/17 05:18:51;;;;;;;33.87;21.33;;;;;;;;;;5034003;28;20238;-82
2021/01/17 05:21:22;;;;;;;31.80;20.07;;;;;;;;;;5033492;28;20188;-81
2021/01/17 05:24:00;;;;;;;30.93;20.40;;;;;;;;;;5015634;28;20181;-82
2021/01/17 05:26:34;;;;;;;32.63;20.67;;;;;;;;;;5015670;28;20183;-82
2021/01/17 05:29:07;;;;;;;33.33;18.63;;;;;;;;;;5033402;28;20278;-82
2021/01/17 05:31:39;;;;;;;29.33;20.00;;;;;;;;;;5033204;28;20204;-82
2021/01/17 05:34:11;;;;;;;33.30;21.37;;;;;;;;;;5033729;28;20176;-82
2021/01/17 05:36:41;;;;;;;27.07;19.33;;;;;;;;;;5033454;28;20172;-82
2021/01/17 05:39:11;;;;;;;30.53;19.83;;;;;;;;;;5015135;28;20192;-81
2021/01/17 05:41:45;;;;;;;29.70;19.30;;;;;;;;;;5032870;28;20187;-81
2021/01/17 05:44:16;;;;;;;30.57;19.67;;;;;;;;;;5015510;28;20185;-81
2021/01/17 05:46:47;;;;;;;31.57;21.10;;;;;;;;;;5015356;28;20187;-82
2021/01/17 05:49:16;;;;;;;30.53;19.50;;;;;;;;;;5033412;28;20204;-81
2021/01/17 05:51:45;;;;;;;30.87;19.40;;;;;;;;;;5032969;28;20201;-82
2021/01/17 05:54:15;;;;;;;31.10;19.90;;;;;;;;;;5033319;28;20234;-82
2021/01/17 05:56:48;;;;;;;31.40;19.97;;;;;;;;;;5033338;28;20185;-81
2021/01/17 05:59:24;;;;;;;29.50;19.83;;;;;;;;;;5033041;28;20204;-82
2021/01/17 06:01:56;;;;;;;31.87;20.47;;;;;;;;;;5015455;28;20182;-81
2021/01/17 06:04:26;;;;;;;30.07;19.90;;;;;;;;;;5015747;28;20183;-82
2021/01/17 06:07:01;;;;;;;31.10;19.27;;;;;;;;;;5033012;28;20161;-81
2021/01/17 06:09:36;;;;;;;29.90;21.17;;;;;;;;;;5015370;28;20699;-81
2021/01/17 06:12:06;;;;;;;31.40;20.50;;;;;;;;;;5015894;28;20206;-81
2021/01/17 06:14:38;;;;;;;29.00;20.37;;;;;;;;;;5032932;28;20191;-82
2021/01/17 06:17:11;;;;;;;30.77;21.03;;;;;;;;;;5033169;28;20182;-82
2021/01/17 06:19:45;;;;;;;31.37;20.93;;;;;;;;;;5033008;28;20213;-81
2021/01/17 06:22:15;;;;;;;27.03;19.27;;;;;;;;;;5032878;28;20174;-81
2021/01/17 06:24:47;;;;;;;29.47;20.03;;;;;;;;;;5032805;28;20192;-81
2021/01/17 06:27:22;;;;;;;30.73;20.30;;;;;;;;;;5032807;28;20180;-82
2021/01/17 06:29:52;;;;;;;28.43;20.43;;;;;;;;;;5032782;28;20199;-82
2021/01/17 06:32:22;;;;;;;34.97;20.17;;;;;;;;;;5032747;28;20200;-81
2021/01/17 06:34:56;;;;;;;31.37;20.00;;;;;;;;;;5015060;28;20191;-82
2021/01/17 06:37:28;;;;;;;33.30;21.00;;;;;;;;;;5014935;28;20176;-82
2021/01/17 06:40:01;;;;;;;33.90;20.40;;;;;;;;;;5014934;28;20206;-81
2021/01/17 06:42:35;;;;;;;27.00;19.47;;;;;;;;;;5032801;28;20180;-82
2021/01/17 06:45:18;;;;;;;35.10;20.83;;;;;;;;;;5032958;28;20172;-82
2021/01/17 06:47:59;;;;;;;27.87;19.60;;;;;;;;;;5032797;28;20173;-82
2021/01/17 06:50:28;;;;;;;27.97;19.27;;;;;;;;;;5032816;28;20275;-81
2021/01/17 06:52:55;;;;;;;31.00;19.70;;;;;;;;;;5036089;28;20251;-82
2021/01/17 06:55:22;;;;;;;31.33;20.50;;;;;;;;;;5036456;28;20180;-82
2021/01/17 06:57:55;;;;;;;31.90;20.77;;;;;;;;;;5036519;28;20559;-81
2021/01/17 07:00:26;;;;;;;30.73;21.27;;;;;;;;;;5036122;28;20557;-81
2021/01/17 07:03:02;;;;;;;31.37;19.90;;;;;;;;;;5018304;28;20177;-81
2021/01/17 07:05:47;;;;;;;33.17;20.90;;;;;;;;;;5036398;28;20525;-81
2021/01/17 07:08:29;;;;;;;30.97;20.27;;;;;;;;;;5035968;28;20228;-81
2021/01/17 07:11:00;;;;;;;32.77;20.40;;;;;;;;;;5018014;28;20585;-81
2021/01/17 07:13:36;;;;;;;31.87;20.30;;;;;;;;;;5036014;28;20246;-81
2021/01/17 07:16:07;;;;;;;31.33;19.53;;;;;;;;;;5017969;28;20168;-81
2021/01/17 07:18:37;;;;;;;32.57;20.90;;;;;;;;;;5017962;28;20295;-81
2021/01/17 07:21:09;;;;;;;33.23;20.20;;;;;;;;;;5055978;22;20231;-86
2021/01/17 07:23:41;;;;;;;31.00;18.87;;;;;;;;;;5037534;28;20179;-86
2021/01/17 07:26:16;;;;;;;33.13;18.30;;;;;;;;;;5055769;28;20147;-87
2021/01/17 07:28:48;;;;;;;30.30;19.43;;;;;;;;;;5037765;28;20178;-86
2021/01/17 07:31:20;;;;;;;29.97;20.53;;;;;;;;;;5037222;28;20274;-86
2021/01/17 07:33:52;;;;;;;29.60;18.20;;;;;;;;;;5055264;28;20553;-86
2021/01/17 07:36:22;;;;;;;29.00;20.13;;;;;;;;;;5037443;28;20164;-87
2021/01/17 07:38:55;;;;;;;35.87;19.00;;;;;;;;;;5037260;28;20647;-87
2021/01/17 07:41:30;;;;;;;29.27;17.97;;;;;;;;;;5037219;28;20203;-87
2021/01/17 07:44:01;;;;;;;31.73;20.97;;;;;;;;;;5037194;28;20186;-87
2021/01/17 07:46:35;;;;;;;29.37;19.70;;;;;;;;;;5037270;28;20172;-86
2021/01/17 07:49:06;;;;;;;32.00;20.47;;;;;;;;;;5037129;28;20240;-86
2021/01/17 07:51:41;;;;;;;37.17;20.17;;;;;;;;;;5036936;28;20702;-86
2021/01/17 07:54:19;;;;;;;30.93;19.83;;;;;;;;;;5054888;28;20173;-86
2021/01/17 07:56:50;;;;;;;34.17;20.10;;;;;;;;;;5037857;28;20176;-87
2021/01/17 07:59:27;;;;;;;32.80;20.13;;;;;;;;;;5036920;28;20172;-86
2021/01/17 08:01:59;;;;;;;32.53;20.43;;;;;;;;;;5055066;28;20194;-86
2021/01/17 08:04:35;;;;;;;32.07;20.63;;;;;;;;;;5036110;28;20172;-86
2021/01/17 08:07:06;;;;;;;29.37;18.87;;;;;;;;;;5036800;28;20192;-87
2021/01/17 08:09:45;;;;;;;32.67;20.00;;;;;;;;;;5054422;28;20261;-87
2021/01/17 08:12:35;;;;;;;33.10;19.77;;;;;;;;;;5036569;28;20206;-87
2021/01/17 08:15:18;;;;;;;33.23;19.23;;;;;;;;;;5054479;28;20201;-87
2021/01/17 08:17:45;;;;;;;31.20;18.47;;;;;;;;;;5054706;28;20178;-87
2021/01/17 08:20:22;;;;;;;34.80;20.30;;;;;;;;;;5036475;28;20221;-87
2021/01/17 08:23:03;;;;;;;27.87;18.43;;;;;;;;;;5036597;28;20201;-86
2021/01/17 08:25:49;;;;;;;30.77;18.87;;;;;;;;;;5037162;28;20183;-87
2021/01/17 08:28:36;;;;;;;31.30;20.20;;;;;;;;;;5036431;28;20175;-87
2021/01/17 08:31:25;;;;;;;32.50;20.07;;;;;;;;;;5036872;28;20196;-87
2021/01/17 08:34:11;;;;;;;30.97;20.07;;;;;;;;;;5054061;28;20177;-87
2021/01/17 08:36:41;;;;;;;30.20;18.37;;;;;;;;;;5054002;28;20652;-87
2021/01/17 08:39:10;;;;;;;30.10;19.30;;;;;;;;;;5036131;28;20580;-87
2021/01/17 08:41:45;;;;;;;32.43;19.73;;;;;;;;;;5053870;28;20191;-87
2021/01/17 08:44:19;;;;;;;29.40;18.93;;;;;;;;;;5036261;28;20175;-87
2021/01/17 08:46:51;;;;;;;27.03;18.77;;;;;;;;;;5036080;28;20176;-87
2021/01/17 08:49:36;;;;;;;28.50;18.77;;;;;;;;;;5036163;28;20160;-87
2021/01/17 08:52:08;;;;;;;30.50;19.53;;;;;;;;;;5035969;28;20242;-87
2021/01/17 08:54:51;;;;;;;27.33;19.00;;;;;;;;;;5035826;28;20198;-87
2021/01/17 08:57:40;;;;;;;28.30;18.53;;;;;;;;;;5035852;28;20167;-87
2021/01/17 09:00:19;;;;;;;26.37;17.90;;;;;;;;;;5035735;28;20275;-87
2021/01/17 09:02:49;;;;;;;28.20;18.67;;;;;;;;;;5053883;28;20172;-87
2021/01/17 09:05:21;;;;;;;26.30;17.07;;;;;;;;;;5053516;28;20172;-87
2021/01/17 09:07:52;;;;;;;27.70;17.13;;;;;;;;;;5035698;28;20179;-87
2021/01/17 09:10:22;;;;;;;27.07;16.93;;;;;;;;;;5035645;28;20203;-87
2021/01/17 09:13:01;;;;;;;25.77;16.93;;;;;;;;;;5035393;28;20218;-87
2021/01/17 09:15:33;;;;;;;25.53;16.00;;;;;;;;;;5052802;28;20195;-87
2021/01/17 09:18:01;;;;;;;24.43;16.93;;;;;;;;;;5035739;28;20175;-87
2021/01/17 09:20:33;;;;;;;29.50;17.07;;;;;;;;;;5053702;28;20567;-87
2021/01/17 09:23:05;;;;;;;25.53;15.97;;;;;;;;;;5035478;28;20179;-87
2021/01/17 09:25:33;;;;;;;27.50;15.77;;;;;;;;;;5053311;28;20717;-87
2021/01/17 09:28:10;;;;;;;22.83;14.73;;;;;;;;;;5053474;28;20175;-87
2021/01/17 09:30:51;;;;;;;21.47;13.90;;;;;;;;;;5035239;28;20290;-87
2021/01/17 09:33:21;;;;;;;27.33;15.83;;;;;;;;;;5035306;28;20196;-87
2021/01/17 09:35:51;;;;;;;26.17;15.10;;;;;;;;;;5035291;28;20176;-87
2021/01/17 09:38:23;;;;;;;24.37;15.67;;;;;;;;;;5035240;28;20636;-87
2021/01/17 09:40:59;;;;;;;23.40;15.67;;;;;;;;;;5053098;28;20301;-87
2021/01/17 09:43:31;;;;;;;25.47;16.83;;;;;;;;;;5035215;28;20781;-87
2021/01/17 09:46:05;;;;;;;21.80;14.97;;;;;;;;;;5053052;28;20182;-87
2021/01/17 09:48:38;;;;;;;23.80;15.77;;;;;;;;;;5053037;28;20202;-87
2021/01/17 09:51:10;;;;;;;24.47;15.13;;;;;;;;;;5035118;28;20202;-87
2021/01/17 09:53:44;;;;;;;24.93;15.67;;;;;;;;;;5052950;28;20644;-87
2021/01/17 09:56:19;;;;;;;24.27;15.37;;;;;;;;;;5053032;28;20711;-87
2021/01/17 09:58:51;;;;;;;22.50;13.70;;;;;;;;;;5035127;28;20175;-87
2021/01/17 10:01:22;;;;;;;23.80;15.17;;;;;;;;;;5034932;28;20196;-87
2021/01/17 10:03:52;;;;;;;24.47;14.77;;;;;;;;;;5035044;28;20210;-87
2021/01/17 10:06:22;;;;;;;21.67;14.90;;;;;;;;;;5052930;28;20206;-87
2021/01/17 10:08:52;;;;;;;21.17;14.13;;;;;;;;;;5034909;28;20172;-87
2021/01/17 10:11:25;;;;;;;19.97;13.93;;;;;;;;;;5053052;28;20657;-87
2021/01/17 10:13:56;;;;;;;25.60;15.57;;;;;;;;;;5052913;28;20318;-87
2021/01/17 10:16:26;;;;;;;22.93;14.87;;;;;;;;;;5034958;28;20176;-87
2021/01/17 10:18:58;;;;;;;23.33;15.37;;;;;;;;;;5053068;28;20518;-87
2021/01/17 10:21:30;;;;;;;22.40;14.27;;;;;;;;;;5052756;28;20215;-86
2021/01/17 10:23:57;;;;;;;21.97;13.57;;;;;;;;;;5052552;28;20179;-86
2021/01/17 10:26:27;;;;;;;21.07;13.67;;;;;;;;;;5036192;28;20176;-88
2021/01/17 10:28:57;;;;;;;22.33;14.50;;;;;;;;;;5038665;28;20259;-90
2021/01/17 10:31:30;;;;;;;19.73;13.73;;;;;;;;;;5038736;28;20204;-89
2021/01/17 10:34:00;;;;;;;23.27;13.33;;;;;;;;;;5056774;28;20259;-88
2021/01/17 10:36:29;;;;;;;23.03;14.27;;;;;;;;;;5038489;28;20593;-87
2021/01/17 10:39:00;;;;;;;20.10;13.67;;;;;;;;;;5038483;28;20249;-87
2021/01/17 10:41:30;;;;;;;22.07;14.20;;;;;;;;;;5038372;28;20694;-87
2021/01/17 10:44:21;;;;;;;22.90;14.50;;;;;;;;;;5038522;28;20184;-87
2021/01/17 10:46:52;;;;;;;20.93;14.17;;;;;;;;;;5038317;28;20176;-87
2021/01/17 10:49:27;;;;;;;24.10;15.43;;;;;;;;;;5056132;28;20176;-88
2021/01/17 10:51:55;;;;;;;21.50;14.63;;;;;;;;;;5038130;28;20311;-86
2021/01/17 10:54:35;;;;;;;23.73;14.07;;;;;;;;;;5038555;28;20180;-86
2021/01/17 10:57:07;;;;;;;19.77;14.20;;;;;;;;;;5038588;28;20172;-86
2021/01/17 10:59:36;;;;;;;22.63;14.80;;;;;;;;;;5038084;28;20233;-87
2021/01/17 11:02:11;;;;;;;23.43;15.53;;;;;;;;;;5038116;28;20180;-87
2021/01/17 11:04:45;;;;;;;21.80;13.77;;;;;;;;;;5038056;28;20176;-88
2021/01/17 11:07:21;;;;;;;25.73;15.23;;;;;;;;;;5038070;28;20556;-87
2021/01/17 11:09:52;;;;;;;22.30;15.57;;;;;;;;;;5056041;28;20686;-87
2021/01/17 11:12:37;;;;;;;25.83;14.80;;;;;;;;;;5037911;28;20572;-87
2021/01/17 11:15:20;;;;;;;24.33;14.93;;;;;;;;;;5037818;28;20180;-87
2021/01/17 11:17:56;;;;;;;23.10;14.93;;;;;;;;;;5055919;28;20182;-88
2021/01/17 11:20:34;;;;;;;25.77;14.37;;;;;;;;;;5037543;28;20717;-89
2021/01/17 11:23:11;;;;;;;20.20;13.53;;;;;;;;;;5037927;28;20177;-89
2021/01/17 11:25:40;;;;;;;22.67;14.93;;;;;;;;;;5037766;28;20256;-91
2021/01/17 11:28:08;;;;;;;21.53;14.23;;;;;;;;;;5037918;28;20180;-91
2021/01/17 11:30:34;;;;;;;22.87;15.03;;;;;;;;;;5037621;28;20227;-90
2021/01/17 11:33:14;;;;;;;22.30;14.47;;;;;;;;;;5037725;28;20204;-90
2021/01/17 11:35:45;;;;;;;20.40;13.50;;;;;;;;;;5055549;28;20190;-89
2021/01/17 11:38:15;;;;;;;21.97;14.10;;;;;;;;;;5054634;28;20648;-90
2021/01/17 11:40:44;;;;;;;21.23;13.37;;;;;;;;;;5055592;28;20268;-89
2021/01/17 11:43:13;;;;;;;20.20;13.77;;;;;;;;;;5037829;28;20690;-90
2021/01/17 11:45:43;;;;;;;19.53;12.87;;;;;;;;;;5055332;28;20172;-90
2021/01/17 11:48:11;;;;;;;19.67;14.23;;;;;;;;;;5037439;28;20187;-89
2021/01/17 11:50:47;;;;;;;19.57;12.33;;;;;;;;;;5037352;28;20249;-89
2021/01/17 11:53:18;;;;;;;22.10;13.17;;;;;;;;;;5037724;28;20204;-89
2021/01/17 11:55:50;;;;;;;24.10;13.83;;;;;;;;;;5055064;28;20637;-89
2021/01/17 11:58:17;;;;;;;20.33;13.20;;;;;;;;;;5055115;28;20168;-90
2021/01/17 12:00:54;;;;;;;23.73;14.37;;;;;;;;;;5037427;28;20193;-90
2021/01/17 12:03:24;;;;;;;21.33;13.77;;;;;;;;;;5054874;28;20207;-89
2021/01/17 12:06:04;;;;;;;18.83;13.07;;;;;;;;;;5037382;28;20177;-89
2021/01/17 12:08:52;;;;;;;24.90;11.60;;;;;;;;;;5055103;28;20172;-90
2021/01/17 12:11:37;;;;;;;17.33;11.83;;;;;;;;;;5036865;28;20220;-88
2021/01/17 12:14:06;;;;;;;19.40;12.97;;;;;;;;;;5036909;28;20633;-90
2021/01/17 12:16:41;;;;;;;21.17;12.70;;;;;;;;;;5036893;28;20183;-90
2021/01/17 12:19:09;;;;;;;19.90;11.63;;;;;;;;;;5054787;28;20168;-90
2021/01/17 12:21:35;;;;;;;16.27;10.67;;;;;;;;;;5036501;28;20233;-90
2021/01/17 12:24:07;;;;;;;16.90;10.87;;;;;;;;;;5054844;28;20176;-90
2021/01/17 12:26:39;;;;;;;15.77;10.67;;;;;;;;;;5036845;28;20299;-91
2021/01/17 12:29:06;;;;;;;15.70;11.03;;;;;;;;;;5036879;28;20298;-90
2021/01/17 12:31:34;;;;;;;15.00;10.70;;;;;;;;;;5036483;28;20584;-91
2021/01/17 12:34:04;;;;;;;19.33;10.93;;;;;;;;;;5054591;28;20170;-90
2021/01/17 12:36:32;;;;;;;16.97;11.97;;;;;;;;;;5036626;28;20176;-90
2021/01/17 12:39:02;;;;;;;16.10;10.90;;;;;;;;;;5036394;28;20657;-90
2021/01/17 12:41:32;;;;;;;16.93;11.27;;;;;;;;;;5036202;28;20195;-90
2021/01/17 12:44:02;;;;;;;16.23;11.50;;;;;;;;;;5036375;28;20176;-90
2021/01/17 12:46:28;;;;;;;24.17;12.93;;;;;;;;;;5036349;28;20185;-90
2021/01/17 12:48:59;;;;;;;23.70;14.17;;;;;;;;;;5036129;28;20183;-90
2021/01/17 12:51:27;;;;;;;18.27;12.77;;;;;;;;;;5036050;28;20202;-89
2021/01/17 12:53:53;;;;;;;17.80;12.77;;;;;;;;;;5036081;28;20180;-89
2021/01/17 12:56:20;;;;;;;19.97;12.17;;;;;;;;;;5054526;28;20531;-89
2021/01/17 12:58:52;;;;;;;17.87;12.80;;;;;;;;;;5036184;28;20186;-90
2021/01/17 13:01:24;;;;;;;22.53;12.43;;;;;;;;;;5035940;28;20195;-90
2021/01/17 13:03:52;;;;;;;23.53;13.60;;;;;;;;;;5035968;28;20174;-88
2021/01/17 13:06:22;;;;;;;23.80;13.93;;;;;;;;;;5053616;28;20255;-88
2021/01/17 13:08:51;;;;;;;21.53;13.57;;;;;;;;;;5035770;28;20256;-88
2021/01/17 13:11:21;;;;;;;21.70;14.27;;;;;;;;;;5053440;28;20191;-87
2021/01/17 13:13:47;;;;;;;20.83;14.03;;;;;;;;;;5053497;28;20578;-88
2021/01/17 13:16:14;;;;;;;22.07;13.93;;;;;;;;;;5035617;28;20173;-87
2021/01/17 13:18:41;;;;;;;18.47;12.73;;;;;;;;;;5053787;28;20532;-88
2021/01/17 13:21:07;;;;;;;28.50;14.30;;;;;;;;;;5035524;28;20233;-87
2021/01/17 13:23:34;;;;;;;21.93;13.73;;;;;;;;;;5053446;28;20247;-87
2021/01/17 13:26:01;;;;;;;23.60;14.03;;;;;;;;;;5053749;28;20157;-89
2021/01/17 13:28:29;;;;;;;21.00;13.30;;;;;;;;;;5035766;28;20192;-88
2021/01/17 13:30:59;;;;;;;24.37;13.90;;;;;;;;;;5035356;28;20196;-88
2021/01/17 13:33:28;;;;;;;25.67;13.27;;;;;;;;;;5035293;28;20200;-88
2021/01/17 13:36:01;;;;;;;23.10;14.13;;;;;;;;;;5035291;28;20177;-88
2021/01/17 13:38:32;;;;;;;19.67;13.60;;;;;;;;;;5053012;28;20178;-88
2021/01/17 13:41:03;;;;;;;23.60;14.37;;;;;;;;;;5035113;28;20192;-88
2021/01/17 13:43:31;;;;;;;18.30;13.23;;;;;;;;;;5053101;28;20168;-89
2021/01/17 13:46:01;;;;;;;21.77;14.10;;;;;;;;;;5035262;28;20204;-89
2021/01/17 13:48:32;;;;;;;18.30;12.90;;;;;;;;;;5053600;28;20197;-89
2021/01/17 13:50:58;;;;;;;24.97;14.40;;;;;;;;;;5035053;28;20614;-88
2021/01/17 13:53:28;;;;;;;23.33;13.73;;;;;;;;;;5035125;28;20259;-88
2021/01/17 13:55:58;;;;;;;22.43;14.37;;;;;;;;;;5034974;28;20178;-89
2021/01/17 13:58:31;;;;;;;21.30;14.00;;;;;;;;;;5035044;28;20168;-89
2021/01/17 14:00:58;;;;;;;27.13;15.53;;;;;;;;;;5036052;28;20214;-88
2021/01/17 14:03:30;;;;;;;24.23;14.30;;;;;;;;;;5039491;28;20176;-88
2021/01/17 14:05:58;;;;;;;22.47;14.80;;;;;;;;;;5056816;28;20607;-88
2021/01/17 14:08:29;;;;;;;24.80;14.67;;;;;;;;;;5056939;28;20173;-88
2021/01/17 14:11:01;;;;;;;23.00;15.27;;;;;;;;;;5038770;28;20193;-88
2021/01/17 14:13:35;;;;;;;30.10;16.23;;;;;;;;;;5056791;28;20225;-89
2021/01/17 14:16:07;;;;;;;27.20;15.70;;;;;;;;;;5038806;28;20668;-88
2021/01/17 14:18:39;;;;;;;27.33;16.57;;;;;;;;;;5038687;28;20175;-89
2021/01/17 14:21:11;;;;;;;26.57;16.30;;;;;;;;;;5056461;28;20204;-89
2021/01/17 14:23:43;;;;;;;28.13;15.10;;;;;;;;;;5038643;28;20179;-88
2021/01/17 14:26:15;;;;;;;20.93;14.80;;;;;;;;;;5038503;28;20671;-88
2021/01/17 14:28:47;;;;;;;23.53;15.73;;;;;;;;;;5056518;28;20219;-88
2021/01/17 14:31:19;;;;;;;24.50;16.57;;;;;;;;;;5038371;28;20188;-88
2021/01/17 14:33:51;;;;;;;29.80;17.90;;;;;;;;;;5038489;28;20219;-88
2021/01/17 14:36:22;;;;;;;24.03;16.67;;;;;;;;;;5056618;28;20543;-88
2021/01/17 14:38:52;;;;;;;25.50;16.20;;;;;;;;;;5056387;28;20301;-88
2021/01/17 14:41:26;;;;;;;25.57;16.93;;;;;;;;;;5056189;28;20279;-88
2021/01/17 14:43:52;;;;;;;24.57;16.67;;;;;;;;;;5038273;28;20179;-88
2021/01/17 14:46:24;;;;;;;24.80;16.57;;;;;;;;;;5056089;28;20176;-89